Time;durP1;ratioP1;P1;durP2;ratioP2;P2;SDS_P1;SDS_P2;PMS_P1;PMS_P2;Temp;Humidity;BMP_temperature;BMP_pressure;BME280_temperature;BME280_humidity;BME280_pressure;Samples;Min_cycle;Max_cycle;Signal;HPM_P1;HPM_P2
2022/09/22 00:02:33;;;;;;;;;17.50;12.75;;;;;27.52;100.00;101434.81;5072788;27;51511;-49
2022/09/22 00:05:17;;;;;;;;;14.00;12.00;;;;;27.51;100.00;101427.59;5079726;27;51112;-49
2022/09/22 00:08:02;;;;;;;;;20.50;13.50;;;;;27.50;100.00;101431.28;5080416;27;51060;-51
2022/09/22 00:11:07;;;;;;;;;19.25;15.50;;;;;27.44;100.00;101418.03;5080199;27;51088;-51
2022/09/22 00:13:54;;;;;;;;;21.25;15.25;;;;;27.50;100.00;101430.44;5080313;27;51413;-51
2022/09/22 00:16:47;;;;;;;;;15.25;13.25;;;;;27.50;100.00;101436.75;5080187;27;51060;-53
2022/09/22 00:19:35;;;;;;;;;21.75;15.75;;;;;27.42;100.00;101417.22;5080235;27;51097;-50
2022/09/22 00:22:20;;;;;;;;;14.25;13.00;;;;;27.52;100.00;101423.88;5079729;27;51113;-51
2022/09/22 00:25:07;;;;;;;;;13.50;11.00;;;;;27.53;100.00;101417.44;5080173;27;51241;-51
2022/09/22 00:27:53;;;;;;;;;16.50;13.50;;;;;27.51;100.00;101410.31;5073960;27;51332;-49
2022/09/22 00:30:41;;;;;;;;;18.00;14.25;;;;;27.51;100.00;101410.31;5080085;27;51441;-52
2022/09/22 00:33:26;;;;;;;;;16.50;10.75;;;;;27.49;100.00;101406.81;5079765;27;51429;-52
2022/09/22 00:36:10;;;;;;;;;17.00;10.75;;;;;27.48;100.00;101405.06;5079765;27;51179;-50
2022/09/22 00:38:57;;;;;;;;;14.50;14.00;;;;;27.47;100.00;101404.16;5079920;27;51057;-48
2022/09/22 00:41:44;;;;;;;;;15.25;11.75;;;;;27.45;100.00;101397.03;5079696;27;51109;-51
2022/09/22 00:44:30;;;;;;;;;12.50;9.00;;;;;27.43;100.00;101405.31;5079893;27;51021;-52
2022/09/22 00:47:21;;;;;;;;;14.00;9.00;;;;;27.43;100.00;101401.69;5079304;28;51547;-53
2022/09/22 00:50:21;;;;;;;;;13.75;9.00;;;;;27.41;100.00;101395.47;5079648;28;51194;-51
2022/09/22 00:53:10;;;;;;;;;10.75;10.00;;;;;27.41;100.00;101385.41;5079930;28;51136;-51
2022/09/22 00:55:58;;;;;;;;;17.75;13.00;;;;;27.40;100.00;101390.97;5071768;28;51194;-52
2022/09/22 00:58:58;;;;;;;;;13.75;11.50;;;;;27.44;100.00;101392.56;5079293;28;51479;-52
2022/09/22 01:01:42;;;;;;;;;10.50;9.00;;;;;27.43;100.00;101383.47;5079017;28;51144;-50
2022/09/22 01:04:28;;;;;;;;;11.00;11.00;;;;;27.41;100.00;101385.41;5079382;28;51139;-52
2022/09/22 01:07:13;;;;;;;;;14.25;12.75;;;;;27.38;100.00;101375.56;5079574;28;51190;-49
2022/09/22 01:09:58;;;;;;;;;15.25;11.25;;;;;27.38;100.00;101371.94;5079706;28;51167;-48
2022/09/22 01:13:13;;;;;;;;;11.50;10.00;;;;;27.45;100.00;101373.34;5079255;28;51120;-49
2022/09/22 01:16:23;;;;;;;;;14.00;12.25;;;;;27.46;100.00;101366.88;5079239;28;51062;-50
2022/09/22 01:19:26;;;;;;;;;15.00;11.75;;;;;27.46;100.00;101364.13;5079512;28;51541;-53
2022/09/22 01:22:21;;;;;;;;;14.50;11.25;;;;;27.43;100.00;101352.50;5079483;28;50999;-52
2022/09/22 01:25:30;;;;;;;;;15.75;13.00;;;;;27.42;100.00;101345.28;5079340;28;51469;-49
2022/09/22 01:28:53;;;;;;;;;13.50;12.00;;;;;27.37;100.00;101341.00;5079435;28;51128;-52
2022/09/22 01:31:50;;;;;;;;;15.50;13.00;;;;;27.34;100.00;101340.34;5076630;28;51171;-51
2022/09/22 01:35:02;;;;;;;;;15.25;12.50;;;;;27.31;100.00;101344.13;5077873;28;51601;-53
2022/09/22 01:37:52;;;;;;;;;15.50;11.50;;;;;27.30;100.00;101349.69;5079004;28;51040;-51
2022/09/22 01:40:48;;;;;;;;;14.25;12.25;;;;;27.27;100.00;101350.78;5075659;28;51429;-49
2022/09/22 01:43:47;;;;;;;;;13.00;11.75;;;;;27.30;100.00;101353.28;5077906;28;51185;-51
2022/09/22 01:46:39;;;;;;;;;15.75;12.00;;;;;27.32;100.00;101353.22;5078019;28;51200;-52
2022/09/22 01:49:28;;;;;;;;;12.75;12.00;;;;;27.33;100.00;101352.25;5078327;28;51221;-50
2022/09/22 01:52:16;;;;;;;;;11.25;11.25;;;;;27.26;100.00;101338.09;5077997;28;51252;-52
2022/09/22 01:55:12;;;;;;;;;11.25;9.25;;;;;27.32;100.00;101347.75;5077778;28;52541;-50
2022/09/22 01:58:27;;;;;;;;;16.50;11.75;;;;;27.28;100.00;101343.44;5079258;27;51076;-55
2022/09/22 02:01:18;;;;;;;;;12.25;11.00;;;;;27.29;100.00;101342.47;5074710;27;51164;-49
2022/09/22 02:04:12;;;;;;;;;13.00;11.50;;;;;27.20;100.00;101328.44;5082277;27;51219;-51
2022/09/22 02:07:03;;;;;;;;;8.25;8.25;;;;;27.28;100.00;101335.25;5081288;27;51173;-49
2022/09/22 02:09:49;;;;;;;;;14.75;11.50;;;;;27.25;100.00;101328.16;5081162;27;51164;-48
2022/09/22 02:12:35;;;;;;;;;13.50;9.75;;;;;27.31;100.00;101349.59;5082487;27;51090;-51
2022/09/22 02:19:07;;;;;;;;;13.75;10.00;;;;;27.29;100.00;101351.56;5081098;27;51460;-52
2022/09/22 02:21:52;;;;;;;;;13.75;11.25;;;;;27.24;100.00;101342.78;5077431;27;51120;-51
2022/09/22 02:24:42;;;;;;;;;13.50;12.25;;;;;27.32;100.00;101361.41;5075219;27;51298;-51
2022/09/22 02:27:35;;;;;;;;;15.50;12.00;;;;;27.32;100.00;101355.94;5082245;27;51159;-52
2022/09/22 02:30:21;;;;;;;;;14.50;10.50;;;;;27.25;100.00;101344.53;5082218;27;51210;-52
2022/09/22 02:33:06;;;;;;;;;10.75;10.50;;;;;27.35;100.00;101353.88;5080960;27;51210;-50
2022/09/22 02:36:08;;;;;;;;;12.75;10.50;;;;;27.36;100.00;101360.22;5081300;27;51184;-51
2022/09/22 02:39:00;;;;;;;;;20.25;10.75;;;;;27.37;100.00;101359.25;5080795;27;51503;-51
2022/09/22 02:41:56;;;;;;;;;12.25;11.75;;;;;27.37;100.00;101357.41;5081885;27;51094;-52
2022/09/22 02:44:51;;;;;;;;;16.00;13.25;;;;;27.41;100.00;101347.16;5080254;27;51027;-50
2022/09/22 02:48:24;;;;;;;;;18.25;12.25;;;;;27.42;100.00;101345.28;5081297;27;51128;-50
2022/09/22 02:51:09;;;;;;;;;12.25;10.00;;;;;27.35;100.00;101339.38;5080844;27;51063;-49
2022/09/22 02:53:54;;;;;;;;;12.00;11.00;;;;;27.42;100.00;101350.75;5081564;27;51168;-52
2022/09/22 02:56:38;;;;;;;;;17.25;11.75;;;;;27.36;100.00;101343.81;5081632;27;51554;-52
2022/09/22 02:59:23;;;;;;;;;18.00;10.00;;;;;27.29;100.00;101334.28;5081300;27;51117;-48
2022/09/22 03:02:07;;;;;;;;;15.50;13.00;;;;;27.34;100.00;101351.28;5076454;27;51141;-54
2022/09/22 03:04:52;;;;;;;;;11.00;10.75;;;;;27.31;100.00;101352.31;5081059;27;51155;-49
2022/09/22 03:07:37;;;;;;;;;13.50;10.75;;;;;27.26;100.00;101342.66;5081535;27;51117;-48
2022/09/22 03:10:21;;;;;;;;;12.25;10.25;;;;;27.30;100.00;101353.28;5081174;27;51128;-50
2022/09/22 03:13:06;;;;;;;;;13.50;11.75;;;;;27.30;100.00;101356.03;5080757;27;51204;-50
2022/09/22 03:15:50;;;;;;;;;15.75;12.75;;;;;27.27;100.00;101353.50;5081145;27;51553;-49
2022/09/22 03:18:34;;;;;;;;;15.25;11.75;;;;;27.29;100.00;101353.41;5081095;27;51204;-52
2022/09/22 03:21:19;;;;;;;;;11.75;9.75;;;;;27.32;100.00;101355.94;5076835;27;51093;-53
2022/09/22 03:24:04;;;;;;;;;11.50;11.50;;;;;27.31;100.00;101360.50;5079511;27;51408;-50
2022/09/22 03:26:49;;;;;;;;;18.50;12.50;;;;;27.24;100.00;101356.44;5080887;27;51235;-53
2022/09/22 03:29:33;;;;;;;;;13.50;8.25;;;;;27.25;100.00;101355.47;5080778;27;51140;-52
2022/09/22 03:32:18;;;;;;;;;16.00;13.00;;;;;27.30;100.00;101386.09;5081031;27;51084;-53
2022/09/22 03:35:03;;;;;;;;;15.25;13.25;;;;;27.29;100.00;101367.06;5080206;27;51453;-50
2022/09/22 03:37:47;;;;;;;;;12.50;11.50;;;;;27.28;100.00;101373.50;5080832;27;51231;-51
2022/09/22 03:40:32;;;;;;;;;10.75;10.75;;;;;27.27;100.00;101371.75;5080569;27;51425;-52
2022/09/22 03:43:16;;;;;;;;;12.50;11.00;;;;;27.26;100.00;101369.97;5080217;27;51151;-50
2022/09/22 03:46:01;;;;;;;;;14.00;11.00;;;;;27.25;100.00;101374.59;5080279;27;51061;-50
2022/09/22 03:48:46;;;;;;;;;13.75;12.25;;;;;27.26;100.00;101375.44;5080408;27;51112;-51
2022/09/22 03:51:31;;;;;;;;;11.25;10.25;;;;;27.17;100.00;101368.75;5080187;27;51162;-51
2022/09/22 03:54:15;;;;;;;;;15.00;12.00;;;;;27.22;100.00;101385.69;5080289;27;51232;-49
2022/09/22 03:57:00;;;;;;;;;16.75;12.50;;;;;27.22;100.00;101392.06;5076536;27;51313;-51
2022/09/22 03:59:44;;;;;;;;;14.50;13.00;;;;;27.23;100.00;101395.66;5079152;27;51375;-49
2022/09/22 04:02:29;;;;;;;;;11.00;11.00;;;;;27.18;100.00;101386.91;5080302;27;51206;-50
2022/09/22 04:05:13;;;;;;;;;15.25;13.00;;;;;27.24;100.00;101393.81;5077214;27;51100;-48
2022/09/22 04:07:58;;;;;;;;;15.25;11.50;;;;;27.19;100.00;101388.66;5080064;27;51114;-50
2022/09/22 04:10:44;;;;;;;;;12.75;11.25;;;;;27.25;100.00;101399.19;5080379;27;51168;-50
2022/09/22 04:13:28;;;;;;;;;17.50;13.00;;;;;27.25;100.00;101407.38;5079998;27;51886;-52
2022/09/22 04:16:13;;;;;;;;;16.00;13.00;;;;;27.28;100.00;101403.56;5080104;27;51124;-51
2022/09/22 04:18:57;;;;;;;;;14.50;11.00;;;;;27.28;100.00;101399.00;5079909;27;51254;-51
2022/09/22 04:21:42;;;;;;;;;19.00;14.00;;;;;27.28;100.00;101399.00;5077193;27;51205;-49
2022/09/22 04:24:26;;;;;;;;;11.00;11.00;;;;;27.28;100.00;101401.72;5079786;27;51349;-53
2022/09/22 04:27:10;;;;;;;;;16.75;12.25;;;;;27.27;100.00;101397.22;5079963;27;51171;-51
2022/09/22 04:29:55;;;;;;;;;14.50;10.75;;;;;27.27;100.00;101401.78;5079694;27;51094;-49
2022/09/22 04:32:39;;;;;;;;;14.75;13.00;;;;;27.30;100.00;101407.06;5079255;27;51140;-51
2022/09/22 04:35:24;;;;;;;;;16.25;13.50;;;;;27.31;100.00;101404.22;5079937;27;51155;-50
2022/09/22 04:38:09;;;;;;;;;16.25;14.25;;;;;27.33;100.00;101402.28;5079045;27;51179;-49
2022/09/22 04:40:54;;;;;;;;;10.50;9.00;;;;;27.32;100.00;101397.78;5078016;27;51157;-51
2022/09/22 04:43:38;;;;;;;;;14.00;11.00;;;;;27.29;100.00;101400.75;5079709;27;51346;-47
2022/09/22 04:46:25;;;;;;;;;18.00;15.25;;;;;27.34;100.00;101403.19;5076612;28;51171;-50
2022/09/22 04:49:09;;;;;;;;;15.25;14.50;;;;;27.35;100.00;101405.81;5079596;28;51163;-52
2022/09/22 04:51:54;;;;;;;;;23.25;16.75;;;;;27.37;100.00;101409.31;5078583;28;51024;-51
2022/09/22 04:54:38;;;;;;;;;18.75;16.25;;;;;27.34;100.00;101398.59;5073808;28;51172;-50
2022/09/22 04:57:22;;;;;;;;;19.50;18.00;;;;;27.38;100.00;101408.34;5079268;28;51073;-49
2022/09/22 05:00:07;;;;;;;;;27.50;19.75;;;;;27.34;100.00;101406.78;5077901;28;51082;-53
2022/09/22 05:02:53;;;;;;;;;28.25;21.00;;;;;27.40;100.00;101427.38;5076163;28;51134;-52
2022/09/22 05:05:37;;;;;;;;;24.75;23.50;;;;;27.40;100.00;101427.38;5079508;28;51438;-52
2022/09/22 05:08:22;;;;;;;;;20.00;19.50;;;;;27.40;100.00;101430.09;5079396;28;51339;-53
2022/09/22 05:11:08;;;;;;;;;22.25;19.75;;;;;27.38;100.00;101430.22;5079788;28;51258;-51
2022/09/22 05:13:54;;;;;;;;;25.25;20.25;;;;;27.33;100.00;101436.94;5078748;28;51657;-51
2022/09/22 05:16:38;;;;;;;;;20.25;20.25;;;;;27.42;100.00;101446.38;5075720;28;51202;-52
2022/09/22 05:19:23;;;;;;;;;30.25;26.00;;;;;27.42;100.00;101450.00;5077948;28;51559;-52
2022/09/22 05:22:08;;;;;;;;;26.25;24.25;;;;;27.42;100.00;101440.91;5077362;28;51142;-50
2022/09/22 05:24:52;;;;;;;;;25.50;25.25;;;;;27.44;100.00;101441.75;5079598;28;51003;-48
2022/09/22 05:27:44;;;;;;;;;27.75;24.00;;;;;27.44;100.00;101449.94;5078076;28;51385;-51
2022/09/22 05:30:28;;;;;;;;;28.50;24.00;;;;;27.42;100.00;101451.84;5076605;28;51121;-50
2022/09/22 05:33:12;;;;;;;;;32.75;27.50;;;;;27.39;100.00;101450.19;5080941;27;51101;-50
2022/09/22 05:35:57;;;;;;;;;33.75;28.00;;;;;27.43;100.00;101449.03;5083390;27;51255;-49
2022/09/22 05:38:42;;;;;;;;;26.25;22.00;;;;;27.39;100.00;101450.19;5082564;27;51218;-49
2022/09/22 05:41:26;;;;;;;;;27.75;23.50;;;;;27.43;100.00;101446.31;5083015;27;51264;-49
2022/09/22 05:44:11;;;;;;;;;35.00;27.75;;;;;27.45;100.00;101454.44;5082727;27;51615;-51
2022/09/22 05:46:56;;;;;;;;;38.25;30.00;;;;;27.46;100.00;101456.19;5077783;27;51167;-50
2022/09/22 05:49:40;;;;;;;;;32.50;28.75;;;;;27.43;100.00;101445.41;5077727;27;51044;-48
2022/09/22 05:52:25;;;;;;;;;33.50;29.25;;;;;27.48;100.00;101455.13;5080105;27;51100;-50
2022/09/22 05:55:11;;;;;;;;;34.25;31.25;;;;;27.47;100.00;101444.28;5077185;27;51645;-53
2022/09/22 05:57:56;;;;;;;;;37.00;29.75;;;;;27.51;100.00;101454.06;5079669;27;51231;-52
2022/09/22 06:00:41;;;;;;;;;37.75;33.00;;;;;27.48;100.00;101459.72;5080671;27;51203;-50
2022/09/22 06:03:25;;;;;;;;;40.25;32.00;;;;;27.53;100.00;101472.09;5078370;27;51361;-51
2022/09/22 06:06:10;;;;;;;;;31.25;27.75;;;;;27.54;100.00;101475.69;5076193;27;51048;-48
2022/09/22 06:08:54;;;;;;;;;36.50;28.75;;;;;27.56;100.00;101478.38;5074367;27;51074;-51
2022/09/22 06:11:39;;;;;;;;;39.00;28.50;;;;;27.56;100.00;101479.22;5079336;27;51263;-50
2022/09/22 06:14:23;;;;;;;;;39.25;30.25;;;;;27.58;100.00;101490.94;5079274;27;51189;-50
2022/09/22 06:17:10;;;;;;;;;39.25;31.25;;;;;27.62;100.00;101495.22;5079132;27;51511;-46
2022/09/22 06:19:55;;;;;;;;;41.50;32.25;;;;;27.64;100.00;101498.75;5079235;27;51111;-45
2022/09/22 06:22:40;;;;;;;;;36.75;31.75;;;;;27.67;100.00;101509.50;5076170;27;51230;-43
2022/09/22 06:25:26;;;;;;;;;36.50;30.50;;;;;27.70;100.00;101502.94;5073811;27;51120;-46
2022/09/22 06:28:15;;;;;;;;;32.50;29.25;;;;;27.73;100.00;101515.53;5076695;27;51486;-45
2022/09/22 06:31:00;;;;;;;;;32.50;30.50;;;;;27.76;100.00;101520.81;5076975;27;51124;-47
2022/09/22 06:33:47;;;;;;;;;32.00;29.25;;;;;27.78;100.00;101510.66;5076292;27;51200;-47
2022/09/22 06:36:32;;;;;;;;;40.75;33.25;;;;;27.81;100.00;101516.81;5076481;27;51411;-44
2022/09/22 06:39:17;;;;;;;;;43.50;34.00;;;;;27.86;100.00;101521.09;5077769;27;51227;-44
2022/09/22 06:42:01;;;;;;;;;36.50;32.25;;;;;27.89;100.00;101519.03;5080347;27;51208;-43
2022/09/22 06:44:46;;;;;;;;;41.25;33.75;;;;;27.98;100.00;101526.66;5080918;27;51279;-46
2022/09/22 06:47:31;;;;;;;;;40.50;34.50;;;;;28.04;100.00;101528.09;5079591;27;51238;-43
2022/09/22 06:50:16;;;;;;;;;27.00;23.25;;;;;28.11;100.00;101531.34;5080294;27;51053;-44
2022/09/22 06:53:02;;;;;;;;;45.00;35.25;;;;;28.13;100.00;101527.53;5076457;27;50998;-46
2022/09/22 06:55:47;;;;;;;;;39.25;32.00;;;;;28.24;100.00;101532.31;5080293;27;51807;-44
2022/09/22 06:58:31;;;;;;;;;38.25;32.75;;;;;28.35;100.00;101531.59;5081623;27;51660;-45
2022/09/22 07:01:17;;;;;;;;;38.50;33.75;;;;;28.44;100.00;101535.59;5081330;27;51202;-42
2022/09/22 07:04:03;;;;;;;;;45.25;36.25;;;;;28.46;100.00;101541.84;5081870;27;51097;-45
2022/09/22 07:06:49;;;;;;;;;32.25;30.75;;;;;28.43;100.00;101539.28;5079303;27;51124;-43
2022/09/22 07:09:33;;;;;;;;;35.75;32.25;;;;;28.46;100.00;101550.06;5081256;27;51513;-45
2022/09/22 07:12:18;;;;;;;;;40.25;31.75;;;;;28.38;100.00;101555.13;5081041;27;51145;-46
2022/09/22 07:15:04;;;;;;;;;41.25;34.00;;;;;28.42;100.00;101554.81;5079736;27;51193;-41
2022/09/22 07:17:52;;;;;;;;;43.25;33.75;;;;;28.48;100.00;101574.56;5080986;27;51323;-44
2022/09/22 07:20:37;;;;;;;;;40.50;33.00;;;;;28.51;100.00;101583.44;5080072;27;51137;-43
2022/09/22 07:23:22;;;;;;;;;46.75;36.50;;;;;28.55;100.00;101595.06;5080833;27;51065;-42
2022/09/22 07:26:13;;;;;;;;;39.25;31.00;;;;;28.54;100.00;101594.22;5080833;27;51303;-42
2022/09/22 07:29:00;;;;;;;;;42.00;34.25;;;;;28.53;100.00;101595.19;5075763;27;51204;-44
2022/09/22 07:31:45;;;;;;;;;35.50;30.00;;;;;28.54;100.00;101594.22;5077509;27;51183;-44
2022/09/22 07:34:29;;;;;;;;;40.00;31.75;;;;;28.54;100.00;101605.16;5078131;27;51672;-42
2022/09/22 07:37:14;;;;;;;;;44.50;32.25;;;;;28.54;100.00;101613.38;5079934;27;51106;-44
2022/09/22 07:40:02;;;;;;;;;38.75;30.50;;;;;28.52;100.00;101612.59;5073876;27;51175;-44
2022/09/22 07:42:49;;;;;;;;;39.50;31.75;;;;;28.51;100.00;101602.63;5079452;27;51103;-44
2022/09/22 07:45:34;;;;;;;;;36.00;28.75;;;;;28.52;100.00;101612.59;5073940;27;51207;-43
2022/09/22 07:48:41;;;;;;;;;16.25;13.50;;;;;28.54;100.00;101620.69;5075027;27;51559;-43
2022/09/22 07:51:26;;;;;;;;;33.50;28.50;;;;;28.54;100.00;101618.84;5079963;27;51119;-43
2022/09/22 07:54:10;;;;;;;;;34.00;30.00;;;;;28.54;100.00;101624.31;5080340;27;51447;-43
2022/09/22 07:56:57;;;;;;;;;38.50;32.00;;;;;28.53;100.00;101630.78;5073298;27;53425;-42
2022/09/22 07:59:41;;;;;;;;;42.75;31.50;;;;;28.52;100.00;101625.41;5079820;27;51662;-44
2022/09/22 08:02:27;;;;;;;;;28.75;25.75;;;;;28.52;100.00;101631.75;5080196;27;51167;-42
2022/09/22 08:05:15;;;;;;;;;26.25;18.25;;;;;28.49;100.00;101628.34;5079899;27;51146;-44
2022/09/22 08:08:01;;;;;;;;;33.00;29.50;;;;;28.44;100.00;101642.34;5079795;27;51162;-42
2022/09/22 08:10:45;;;;;;;;;30.75;28.25;;;;;28.36;100.00;101644.69;5080239;27;51230;-46
2022/09/22 08:13:30;;;;;;;;;36.00;31.50;;;;;28.37;100.00;101646.44;5076659;27;51113;-41
2022/09/22 08:16:17;;;;;;;;;34.00;29.25;;;;;28.36;100.00;101655.66;5079751;27;51105;-42
2022/09/22 08:19:09;;;;;;;;;39.00;30.00;;;;;28.34;100.00;101665.81;5080222;27;51140;-45
2022/09/22 08:21:53;;;;;;;;;30.75;30.25;;;;;28.30;100.00;101660.53;5076451;27;51547;-41
2022/09/22 08:24:38;;;;;;;;;32.75;30.00;;;;;28.28;100.00;101673.41;5077062;27;51609;-42
2022/09/22 08:27:22;;;;;;;;;43.25;35.00;;;;;28.25;100.00;101675.47;5075029;27;51227;-48
2022/09/22 08:30:09;;;;;;;;;39.75;32.25;;;;;28.21;100.00;101674.78;5080136;27;51380;-51
2022/09/22 08:32:54;;;;;;;;;31.75;29.50;;;;;28.19;100.00;101670.41;5079714;27;51428;-42
2022/09/22 08:35:49;;;;;;;;;28.75;24.00;;;;;28.14;100.00;101681.66;5079771;27;51260;-44
2022/09/22 08:38:34;;;;;;;;;39.75;31.75;;;;;28.10;100.00;101691.88;5080025;27;51422;-43
2022/09/22 08:41:45;;;;;;;;;42.00;31.25;;;;;28.11;100.00;101685.44;5079613;27;51009;-43
2022/09/22 08:44:39;;;;;;;;;33.50;29.75;;;;;28.11;100.00;101695.50;5077125;27;51149;-44
2022/09/22 08:53:50;;;;;;;;;33.00;30.00;;;;;28.06;100.00;101692.13;5079269;28;51173;-42
2022/09/22 08:56:46;;;;;;;;;39.00;33.25;;;;;28.05;100.00;101682.16;5078699;27;51211;-42
2022/09/22 08:59:37;;;;;;;;;32.75;28.50;;;;;28.04;100.00;101688.63;5078013;28;51460;-44
2022/09/22 09:02:41;;;;;;;;;43.50;35.25;;;;;28.04;100.00;101697.72;5075910;27;51122;-43
2022/09/22 09:05:47;;;;;;;;;43.50;35.75;;;;;28.02;100.00;101699.66;5071820;28;51314;-40
2022/09/22 09:08:40;;;;;;;;;42.00;35.00;;;;;27.99;100.00;101692.53;5068985;27;51123;-42
2022/09/22 09:11:57;;;;;;;;;38.50;33.50;;;;;27.99;100.00;101699.84;5080525;27;51497;-42
2022/09/22 09:14:42;;;;;;;;;41.25;32.50;;;;;27.97;100.00;101708.16;5066543;27;51208;-44
2022/09/22 09:17:32;;;;;;;;;45.75;32.50;;;;;27.94;100.00;101700.13;5070163;27;51579;-44
2022/09/22 09:20:28;;;;;;;;;33.50;29.75;;;;;27.94;100.00;101705.59;5080783;27;51188;-44
2022/09/22 09:23:18;;;;;;;;;39.50;35.00;;;;;27.92;100.00;101707.56;5081441;27;51185;-43
2022/09/22 09:26:04;;;;;;;;;43.50;32.25;;;;;27.89;100.00;101710.50;5080663;27;51187;-42
2022/09/22 09:29:03;;;;;;;;;39.75;29.25;;;;;27.86;100.00;101704.34;5082311;27;51566;-44
2022/09/22 09:31:51;;;;;;;;;25.75;23.75;;;;;27.84;100.00;101713.50;5082197;27;52401;-45
2022/09/22 09:34:36;;;;;;;;;27.00;21.25;;;;;27.80;100.00;101708.34;5080780;27;51219;-44
2022/09/22 09:37:22;;;;;;;;;21.25;17.25;;;;;27.76;100.00;101704.00;5083327;27;51216;-42
2022/09/22 09:40:14;;;;;;;;;21.00;19.00;;;;;27.70;100.00;101712.59;5080335;27;51261;-42
2022/09/22 09:43:02;;;;;;;;;16.25;14.25;;;;;27.63;100.00;101712.94;5077320;27;51105;-42
2022/09/22 09:45:52;;;;;;;;;19.25;15.75;;;;;27.62;100.00;101721.25;5082115;27;51113;-44
2022/09/22 09:48:50;;;;;;;;;19.25;17.75;;;;;27.58;100.00;101728.78;5083304;27;51241;-44
2022/09/22 09:51:37;;;;;;;;;22.50;16.00;;;;;27.56;100.00;101722.50;5079249;27;51290;-44
2022/09/22 09:54:22;;;;;;;;;19.00;14.25;;;;;27.54;100.00;101721.72;5081426;27;51130;-42
2022/09/22 09:57:10;;;;;;;;;20.50;14.25;;;;;27.52;100.00;101724.56;5081284;27;51851;-43
2022/09/22 10:00:32;;;;;;;;;15.50;14.00;;;;;27.52;100.00;101720.91;5080943;27;51424;-43
2022/09/22 10:03:29;;;;;;;;;17.50;13.50;;;;;27.51;100.00;101719.19;5081880;27;51435;-42
2022/09/22 10:06:23;;;;;;;;;17.00;13.50;;;;;27.48;100.00;101720.22;5080458;27;51201;-42
2022/09/22 10:09:07;;;;;;;;;17.00;15.00;;;;;27.48;100.00;101727.56;5080505;27;51558;-43
2022/09/22 10:11:59;;;;;;;;;19.75;15.25;;;;;27.42;100.00;101709.66;5081583;27;51084;-45
2022/09/22 10:14:50;;;;;;;;;14.25;13.00;;;;;27.44;100.00;101720.50;5078944;27;51266;-46
2022/09/22 10:17:43;;;;;;;;;14.50;13.00;;;;;27.41;100.00;101715.22;5080634;27;51151;-46
2022/09/22 10:20:32;;;;;;;;;14.75;12.00;;;;;27.40;100.00;101710.72;5080127;27;51184;-46
2022/09/22 10:23:21;;;;;;;;;18.00;12.75;;;;;27.36;100.00;101712.72;5081669;27;51172;-43
2022/09/22 10:26:27;;;;;;;;;17.00;12.75;;;;;27.32;100.00;101711.16;5077213;27;51198;-48
2022/09/22 10:29:11;;;;;;;;;15.75;14.50;;;;;27.31;100.00;101710.25;5082406;27;50975;-44
2022/09/22 10:32:10;;;;;;;;;16.25;15.00;;;;;27.33;100.00;101710.19;5080995;27;51198;-44
2022/09/22 10:34:58;;;;;;;;;21.50;15.25;;;;;27.33;100.00;101705.59;5076421;27;51610;-43
2022/09/22 10:37:43;;;;;;;;;23.25;17.00;;;;;27.31;100.00;101693.88;5081698;27;51173;-48
2022/09/22 10:40:30;;;;;;;;;15.50;15.50;;;;;27.34;100.00;101695.56;5081201;27;51138;-46
2022/09/22 10:43:36;;;;;;;;;24.25;20.25;;;;;27.34;100.00;101692.84;5079646;27;51011;-43
2022/09/22 10:46:39;;;;;;;;;21.75;20.00;;;;;27.36;100.00;101690.88;5072976;27;51050;-40
2022/09/22 10:49:30;;;;;;;;;16.00;13.50;;;;;27.36;100.00;101696.31;5080584;27;51157;-46
2022/09/22 10:52:23;;;;;;;;;21.00;15.75;;;;;27.35;100.00;101690.00;5079738;27;51211;-46
2022/09/22 10:55:19;;;;;;;;;22.25;17.00;;;;;27.35;100.00;101694.59;5081015;27;51224;-41
2022/09/22 10:58:31;;;;;;;;;23.00;16.75;;;;;27.36;100.00;101691.75;5079984;27;51075;-42
2022/09/22 11:01:45;;;;;;;;;28.00;22.50;;;;;27.34;100.00;101685.50;5080803;27;51397;-41
2022/09/22 11:04:30;;;;;;;;;18.75;15.25;;;;;27.32;100.00;101687.44;5079782;27;51115;-44
2022/09/22 11:14:00;;;;;;;;;15.75;14.50;;;;;27.26;100.00;101679.63;5072667;27;51210;-41
2022/09/22 11:16:53;;;;;;;;;21.75;20.50;;;;;27.26;100.00;101682.34;5080559;27;51248;-43
2022/09/22 11:19:48;;;;;;;;;17.00;15.50;;;;;27.27;100.00;101675.03;5080505;27;51175;-46
2022/09/22 11:23:13;;;;;;;;;24.00;17.75;;;;;27.23;100.00;101660.66;5080748;27;51045;-44
2022/09/22 11:26:07;;;;;;;;;19.50;16.75;;;;;27.29;100.00;101660.31;5080571;27;51133;-44
2022/09/22 11:29:44;;;;;;;;;18.00;15.75;;;;;27.31;100.00;101654.75;5080452;27;51526;-43
2022/09/22 11:32:52;;;;;;;;;22.00;14.75;;;;;27.34;100.00;101635.44;5063325;27;51059;-42
2022/09/22 11:35:55;;;;;;;;;21.25;14.25;;;;;27.35;100.00;101635.34;5074774;27;51069;-43
2022/09/22 11:39:03;;;;;;;;;19.75;16.75;;;;;27.35;100.00;101618.09;5077533;27;51484;-42
2022/09/22 11:41:56;;;;;;;;;19.00;17.25;;;;;27.35;100.00;101604.41;5075797;27;51124;-43
2022/09/22 11:45:02;;;;;;;;;28.00;20.00;;;;;27.34;100.00;101600.78;5079991;27;51751;-41
2022/09/22 11:47:55;;;;;;;;;19.75;16.25;;;;;27.28;100.00;101592.97;5073474;27;51188;-42
2022/09/22 11:51:08;;;;;;;;;17.75;15.50;;;;;27.34;100.00;101589.00;5063815;27;51124;-44
2022/09/22 11:54:11;;;;;;;;;18.00;13.75;;;;;27.35;100.00;101593.50;5079525;27;51212;-42
2022/09/22 11:57:10;;;;;;;;;13.25;11.75;;;;;27.34;100.00;101587.13;5079084;27;51788;-41
2022/09/22 12:00:20;;;;;;;;;23.75;20.50;;;;;27.30;100.00;101577.34;5077556;27;51248;-43
2022/09/22 12:03:19;;;;;;;;;23.25;19.75;;;;;27.29;100.00;101570.16;5079096;27;51002;-43
2022/09/22 12:06:05;;;;;;;;;35.00;24.00;;;;;27.37;100.00;101569.66;5078133;27;51099;-44
2022/09/22 12:08:58;;;;;;;;;21.25;17.75;;;;;27.40;100.00;101563.16;5079705;27;51117;-42
2022/09/22 12:11:43;;;;;;;;;27.50;25.00;;;;;27.41;100.00;101554.84;5076670;27;51535;-44
2022/09/22 12:14:28;;;;;;;;;23.25;19.00;;;;;27.44;100.00;101551.06;5076850;27;51214;-45
2022/09/22 12:17:17;;;;;;;;;20.75;20.00;;;;;27.47;100.00;101540.81;5076747;27;51168;-44
2022/09/22 12:20:32;;;;;;;;;33.75;30.75;;;;;27.51;100.00;101531.44;5078918;27;51434;-44
2022/09/22 12:23:32;;;;;;;;;18.00;17.00;;;;;27.52;100.00;101529.59;5078947;27;51085;-43
2022/09/22 12:26:31;;;;;;;;;16.25;13.50;;;;;27.50;100.00;101517.91;5075938;27;51030;-45
2022/09/22 12:29:15;;;;;;;;;19.50;15.00;;;;;27.48;100.00;101511.63;5076251;27;51210;-45
2022/09/22 12:32:00;;;;;;;;;17.25;15.25;;;;;27.47;100.00;101509.88;5075897;27;50997;-45
2022/09/22 12:34:45;;;;;;;;;14.50;12.25;;;;;27.44;100.00;101504.59;5074184;27;51319;-42
2022/09/22 12:37:36;;;;;;;;;19.25;14.75;;;;;27.48;100.00;101487.91;5073829;27;51195;-43
2022/09/22 12:40:40;;;;;;;;;22.75;19.75;;;;;27.51;100.00;101479.53;5077324;27;51370;-42
2022/09/22 12:43:26;;;;;;;;;17.75;14.00;;;;;27.54;100.00;101470.25;5078001;27;51105;-44
2022/09/22 12:46:24;;;;;;;;;16.50;13.75;;;;;27.56;100.00;101456.50;5079514;27;51065;-43
2022/09/22 12:49:14;;;;;;;;;25.25;18.00;;;;;27.58;100.00;101440.84;5073712;28;51174;-45
2022/09/22 12:51:58;;;;;;;;;22.25;15.50;;;;;27.60;100.00;101428.88;5078354;28;51117;-43
2022/09/22 12:54:44;;;;;;;;;19.00;17.50;;;;;27.51;100.00;101392.06;5077306;28;51126;-43
2022/09/22 12:57:29;;;;;;;;;26.75;21.00;;;;;27.64;100.00;101399.47;5079481;28;51492;-43
2022/09/22 13:00:22;;;;;;;;;18.50;17.50;;;;;27.65;100.00;101387.56;5079245;28;51123;-42
2022/09/22 13:03:24;;;;;;;;;19.00;16.25;;;;;27.79;100.00;101397.56;5079241;28;51145;-45